createdAt,value
2018-06-11T00:02:17.239Z,19.20
2018-06-11T00:04:47.271Z,19.20
2018-06-11T00:07:17.550Z,19.10
2018-06-11T00:09:47.750Z,19.10
2018-06-11T00:12:18.320Z,19.10
2018-06-11T00:14:48.870Z,19.00
2018-06-11T00:17:19.232Z,19.00
2018-06-11T00:19:49.400Z,19.00
2018-06-11T00:22:19.430Z,19.00
2018-06-11T00:24:49.821Z,19.00
2018-06-11T00:27:19.990Z,19.00
2018-06-11T00:32:20.480Z,18.80
2018-06-11T00:34:50.720Z,18.80
2018-06-11T00:37:20.940Z,18.70
2018-06-11T00:39:51.139Z,18.70
2018-06-11T00:42:21.370Z,18.70
2018-06-11T00:44:51.421Z,18.80
2018-06-11T00:47:21.281Z,18.70
2018-06-11T00:49:51.441Z,18.70
2018-06-11T00:52:21.589Z,18.70
2018-06-11T00:57:21.171Z,18.70
2018-06-11T00:59:51.531Z,18.60
2018-06-11T01:02:21.179Z,18.60
2018-06-11T01:04:51.390Z,18.50
2018-06-11T01:07:21.549Z,18.50
2018-06-11T01:09:51.801Z,18.50
2018-06-11T01:12:22.110Z,18.50
2018-06-11T01:14:52.640Z,18.50
2018-06-11T01:17:22.881Z,18.50
2018-06-11T01:19:53.661Z,18.60
2018-06-11T01:22:24.115Z,18.60
2018-06-11T01:24:53.729Z,18.60
2018-06-11T01:27:24.070Z,18.60
2018-06-11T01:32:24.419Z,18.50
2018-06-11T01:34:54.561Z,18.50
2018-06-11T01:37:25.000Z,18.50
2018-06-11T01:39:55.191Z,18.40
2018-06-11T01:42:25.271Z,18.40
2018-06-11T01:44:55.831Z,18.40
2018-06-11T01:47:26.070Z,18.30
2018-06-11T01:49:56.311Z,18.30
2018-06-11T01:52:26.571Z,18.20
2018-06-11T01:54:56.861Z,18.10
2018-06-11T01:57:26.892Z,18.00
2018-06-11T01:59:57.651Z,17.90
2018-06-11T02:02:27.530Z,17.80
2018-06-11T02:04:58.011Z,17.70
2018-06-11T02:07:28.311Z,17.60
2018-06-11T02:09:58.884Z,17.60
2018-06-11T02:12:28.970Z,17.50
2018-06-11T02:14:59.460Z,17.50
2018-06-11T02:17:29.880Z,17.40
2018-06-11T02:20:00.041Z,17.30
2018-06-11T02:25:00.192Z,17.20
2018-06-11T02:27:30.551Z,17.20
2018-06-11T02:30:01.254Z,17.10
2018-06-11T02:32:31.243Z,17.10
2018-06-11T02:35:01.354Z,17.00
2018-06-11T02:37:31.611Z,17.00
2018-06-11T02:40:01.654Z,17.00
2018-06-11T02:42:31.991Z,17.00
2018-06-11T02:45:02.117Z,17.00
2018-06-11T02:47:32.383Z,16.90
2018-06-11T02:52:32.732Z,16.90
2018-06-11T02:55:02.385Z,17.00
2018-06-11T02:57:31.789Z,17.00
2018-06-11T03:00:01.671Z,17.00
2018-06-11T03:02:31.536Z,17.00
2018-06-11T03:05:01.342Z,17.00
2018-06-11T03:07:31.741Z,17.00
2018-06-11T03:10:02.132Z,17.00
2018-06-11T03:12:32.401Z,16.90
2018-06-11T03:15:02.044Z,16.80
2018-06-11T03:17:32.223Z,16.80
2018-06-11T03:20:02.070Z,16.80
2018-06-11T03:25:02.276Z,16.80
2018-06-11T03:27:32.671Z,16.90
2018-06-11T03:30:02.895Z,16.90
2018-06-11T03:32:32.505Z,17.10
2018-06-11T03:35:02.404Z,17.20
2018-06-11T03:37:32.391Z,17.30
2018-06-11T03:40:02.451Z,17.40
2018-06-11T03:42:32.899Z,17.60
2018-06-11T03:45:02.558Z,17.90
2018-06-11T03:47:32.860Z,18.30
2018-06-11T03:50:02.670Z,18.60
2018-06-11T03:52:32.942Z,18.90
2018-06-11T03:55:02.731Z,19.30
2018-06-11T03:57:32.929Z,19.60
2018-06-11T04:00:03.187Z,20.00
2018-06-11T04:02:33.481Z,20.40
2018-06-11T04:07:33.171Z,20.90
2018-06-11T04:10:02.930Z,20.90
2018-06-11T04:12:33.643Z,20.80
2018-06-11T04:15:03.782Z,20.80
2018-06-11T04:17:34.281Z,21.00
2018-06-11T04:20:03.971Z,21.10
2018-06-11T04:22:34.209Z,21.10
2018-06-11T04:25:03.791Z,21.20
2018-06-11T04:27:33.851Z,21.50
2018-06-11T04:32:34.139Z,22.00
2018-06-11T04:35:04.281Z,22.60
2018-06-11T04:37:34.651Z,23.10
2018-06-11T04:40:04.710Z,23.70
2018-06-11T04:42:34.871Z,24.40
2018-06-11T04:45:05.048Z,25.00
2018-06-11T04:47:35.431Z,25.30
2018-06-11T04:50:05.434Z,25.50
2018-06-11T04:52:35.949Z,25.80
2018-06-11T04:55:06.664Z,26.30
2018-06-11T04:57:36.839Z,25.70
2018-06-11T05:00:07.501Z,25.60
2018-06-11T05:02:37.701Z,25.50
2018-06-11T05:05:07.990Z,26.00
2018-06-11T05:07:38.420Z,26.60
2018-06-11T05:10:08.625Z,27.10
2018-06-11T05:12:38.781Z,27.50
2018-06-11T05:15:09.104Z,27.70
2018-06-11T05:17:39.472Z,27.50
2018-06-11T05:20:09.603Z,27.60
2018-06-11T05:22:39.661Z,27.70
2018-06-11T05:25:10.431Z,27.90
2018-06-11T05:27:40.529Z,27.90
2018-06-11T05:30:10.841Z,28.00
2018-06-11T05:32:40.910Z,28.30
2018-06-11T05:35:11.242Z,28.70
2018-06-11T05:37:41.560Z,28.90
2018-06-11T05:40:11.851Z,28.70
2018-06-11T05:42:42.291Z,29.00
2018-06-11T05:45:12.760Z,29.50
2018-06-11T05:47:42.910Z,29.80
2018-06-11T05:50:13.270Z,29.90
2018-06-11T05:52:44.151Z,30.20
2018-06-11T05:55:14.309Z,30.40
2018-06-11T05:57:44.410Z,30.20
2018-06-11T06:00:14.681Z,30.20
2018-06-11T06:02:45.070Z,30.00
2018-06-11T06:05:15.222Z,29.90
2018-06-11T06:07:45.451Z,29.70
2018-06-11T06:10:15.841Z,30.00
2018-06-11T06:12:46.080Z,30.00
2018-06-11T06:15:16.310Z,29.80
2018-06-11T06:17:46.205Z,29.50
2018-06-11T06:20:16.050Z,29.10
2018-06-11T06:22:46.250Z,28.70
2018-06-11T06:25:16.197Z,28.30
2018-06-11T06:27:46.301Z,27.90
2018-06-11T06:30:16.431Z,27.50
2018-06-11T06:32:49.660Z,27.10
2018-06-11T06:35:20.221Z,26.80
2018-06-11T06:37:50.289Z,26.70
2018-06-11T06:40:20.041Z,26.60
2018-06-11T06:42:50.171Z,26.50
2018-06-11T06:45:20.472Z,26.40
2018-06-11T06:47:50.731Z,26.60
2018-06-11T06:52:50.931Z,26.60
2018-06-11T06:55:21.131Z,26.60
2018-06-11T06:57:51.351Z,26.70
2018-06-11T07:00:21.660Z,26.60
2018-06-11T07:02:51.930Z,26.60
2018-06-11T07:05:22.211Z,26.40
2018-06-11T07:07:52.461Z,26.30
2018-06-11T07:10:22.005Z,26.40
2018-06-11T07:15:22.461Z,26.50
2018-06-11T07:17:52.942Z,26.60
2018-06-11T07:20:23.191Z,26.70
2018-06-11T07:22:53.431Z,26.80
2018-06-11T07:25:23.610Z,26.80
2018-06-11T07:27:54.321Z,26.90
2018-06-11T07:30:24.170Z,26.90
2018-06-11T07:32:54.400Z,27.00
2018-06-11T07:35:24.731Z,27.00
2018-06-11T07:37:55.540Z,27.10
2018-06-11T07:40:25.783Z,27.10
2018-06-11T07:42:56.111Z,27.10
2018-06-11T07:45:26.431Z,27.20
2018-06-11T07:47:56.692Z,27.20
2018-06-11T07:50:26.872Z,27.40
2018-06-11T07:52:57.111Z,27.50
2018-06-11T07:55:27.551Z,27.50
2018-06-11T07:57:57.961Z,27.60
2018-06-11T08:00:28.122Z,27.50
2018-06-11T08:02:58.441Z,27.60
2018-06-11T08:05:28.710Z,27.80
2018-06-11T08:07:59.021Z,27.90
2018-06-11T08:10:29.342Z,28.00
2018-06-11T08:12:59.701Z,28.20
2018-06-11T08:15:30.031Z,28.30
2018-06-11T08:18:00.161Z,28.30
2018-06-11T08:20:30.610Z,28.00
2018-06-11T08:23:01.732Z,28.00
2018-06-11T08:25:32.354Z,28.10
2018-06-11T08:28:02.551Z,28.20
2018-06-11T08:30:32.951Z,28.40
2018-06-11T08:33:03.380Z,28.20
2018-06-11T08:35:33.931Z,28.00
2018-06-11T08:38:04.789Z,28.00
2018-06-11T08:40:34.921Z,28.10
2018-06-11T08:43:05.115Z,28.30
2018-06-11T08:45:35.480Z,28.30
2018-06-11T08:48:05.825Z,28.60
2018-06-11T08:50:35.995Z,28.60
2018-06-11T08:53:06.323Z,28.70
2018-06-11T08:55:36.760Z,28.90
2018-06-11T08:58:07.502Z,29.20
2018-06-11T09:00:37.922Z,29.40
2018-06-11T09:03:08.420Z,29.40
2018-06-11T09:05:39.071Z,29.50
2018-06-11T09:08:09.091Z,29.60
2018-06-11T09:10:39.320Z,29.60
2018-06-11T09:13:09.781Z,29.80
2018-06-11T09:15:40.120Z,30.10
2018-06-11T09:18:10.427Z,30.30
2018-06-11T09:20:40.640Z,30.40
2018-06-11T09:23:10.910Z,30.30
2018-06-11T09:25:41.641Z,30.50
2018-06-11T09:28:11.810Z,30.50
2018-06-11T09:30:41.892Z,30.70
2018-06-11T09:33:12.137Z,30.80
2018-06-11T09:35:42.400Z,31.00
2018-06-11T09:38:12.743Z,31.10
2018-06-11T09:45:42.500Z,31.30
2018-06-11T09:50:42.602Z,31.10
2018-06-11T09:53:13.311Z,31.10
2018-06-11T09:55:43.379Z,30.90
2018-06-11T09:58:13.672Z,30.80
2018-06-11T10:00:44.261Z,30.90
2018-06-11T10:03:14.611Z,31.00
2018-06-11T10:05:44.933Z,31.10
2018-06-11T10:08:15.033Z,31.30
2018-06-11T10:10:45.011Z,31.50
2018-06-11T10:13:15.604Z,31.60
2018-06-11T10:15:45.733Z,31.60
2018-06-11T10:18:16.238Z,31.80
2018-06-11T10:20:50.980Z,31.70
2018-06-11T10:23:20.952Z,31.80
2018-06-11T10:25:51.391Z,32.00
2018-06-11T10:28:22.081Z,32.20
2018-06-11T10:30:52.280Z,32.30
2018-06-11T10:33:22.640Z,32.50
2018-06-11T10:35:53.241Z,32.60
2018-06-11T10:38:23.951Z,32.60
2018-06-11T10:40:54.311Z,32.60
2018-06-11T10:43:24.677Z,32.50
2018-06-11T10:45:54.972Z,32.50
2018-06-11T10:48:25.290Z,32.20
2018-06-11T10:50:55.503Z,32.40
2018-06-11T10:53:25.971Z,32.60
2018-06-11T10:55:56.221Z,32.50
2018-06-11T10:58:26.511Z,32.50
2018-06-11T11:00:57.001Z,32.50
2018-06-11T11:03:27.130Z,32.40
2018-06-11T11:05:57.251Z,32.00
2018-06-11T11:08:28.121Z,31.80
2018-06-11T11:13:28.273Z,31.90
2018-06-11T11:15:58.311Z,31.90
2018-06-11T11:18:28.611Z,31.90
2018-06-11T11:20:58.990Z,32.10
2018-06-11T11:23:29.299Z,32.30
2018-06-11T11:25:59.701Z,32.40
2018-06-11T11:28:30.171Z,32.60
2018-06-11T11:31:00.460Z,32.60
2018-06-11T11:33:30.902Z,32.70
2018-06-11T11:36:01.452Z,32.90
2018-06-11T11:38:31.650Z,32.70
2018-06-11T11:41:01.921Z,32.80
2018-06-11T11:43:32.739Z,32.80
2018-06-11T11:46:02.972Z,33.00
2018-06-11T11:48:33.085Z,33.10
2018-06-11T11:51:04.443Z,33.10
2018-06-11T11:53:34.901Z,33.30
2018-06-11T11:56:05.091Z,33.40
2018-06-11T11:58:34.734Z,33.30
2018-06-11T12:01:05.052Z,33.40
2018-06-11T12:03:36.083Z,33.40
2018-06-11T12:06:06.371Z,33.30
2018-06-11T12:08:36.822Z,33.30
2018-06-11T12:11:07.452Z,33.20
2018-06-11T12:16:06.682Z,33.40
2018-06-11T12:18:36.691Z,33.60
2018-06-11T12:21:06.805Z,33.70
2018-06-11T12:23:36.791Z,33.80
2018-06-11T12:26:07.091Z,33.80
2018-06-11T12:28:38.153Z,33.70
2018-06-11T12:31:08.431Z,33.60
2018-06-11T12:33:38.902Z,33.60
2018-06-11T12:36:09.370Z,33.70
2018-06-11T12:38:43.925Z,33.80
2018-06-11T12:41:14.790Z,33.80
2018-06-11T12:43:44.897Z,34.00
2018-06-11T12:46:15.892Z,33.90
2018-06-11T12:48:45.762Z,34.10
2018-06-11T12:51:16.040Z,34.10
2018-06-11T12:53:46.331Z,34.00
2018-06-11T12:56:16.787Z,33.90
2018-06-11T12:58:47.142Z,33.90
2018-06-11T13:01:17.625Z,33.80
2018-06-11T13:06:17.470Z,33.70
2018-06-11T13:08:47.652Z,33.70
2018-06-11T13:11:17.877Z,33.80
2018-06-11T13:13:48.031Z,33.60
2018-06-11T13:16:18.330Z,33.60
2018-06-11T13:21:19.426Z,33.70
2018-06-11T13:23:49.920Z,33.60
2018-06-11T13:26:19.853Z,33.80
2018-06-11T13:28:50.562Z,34.00
2018-06-11T13:31:21.001Z,33.80
2018-06-11T13:33:51.360Z,33.80
2018-06-11T13:36:21.663Z,33.80
2018-06-11T13:38:51.863Z,33.80
2018-06-11T13:41:22.065Z,33.80
2018-06-11T13:43:52.012Z,33.70
2018-06-11T13:46:22.387Z,33.60
2018-06-11T13:48:52.981Z,33.60
2018-06-11T13:51:23.542Z,33.80
2018-06-11T13:53:53.781Z,34.00
2018-06-11T13:56:23.461Z,34.00
2018-06-11T13:58:53.721Z,33.80
2018-06-11T14:01:23.280Z,33.70
2018-06-11T14:03:53.581Z,33.50
2018-06-11T14:06:23.535Z,33.60
2018-06-11T14:08:53.801Z,33.70
2018-06-11T14:11:23.422Z,33.60
2018-06-11T14:13:53.752Z,33.70
2018-06-11T14:16:23.724Z,33.80
2018-06-11T14:18:54.000Z,33.80
2018-06-11T14:21:24.262Z,33.80
2018-06-11T14:23:54.920Z,34.00
2018-06-11T14:26:33.756Z,34.10
2018-06-11T14:29:04.921Z,34.10
2018-06-11T14:31:35.202Z,34.20
2018-06-11T14:34:05.359Z,34.30
2018-06-11T14:36:36.135Z,34.30
2018-06-11T14:39:10.541Z,34.30
2018-06-11T14:41:41.781Z,34.30
2018-06-11T14:44:11.510Z,34.30
2018-06-11T14:46:42.191Z,34.00
2018-06-11T14:49:12.247Z,33.90
2018-06-11T14:51:42.969Z,33.80
2018-06-11T14:54:13.151Z,33.80
2018-06-11T14:56:43.341Z,33.90
2018-06-11T14:59:13.813Z,34.00
2018-06-11T15:01:44.835Z,34.00
2018-06-11T15:04:15.233Z,34.20
2018-06-11T15:06:45.132Z,34.30
2018-06-11T15:09:16.941Z,34.40
2018-06-11T15:11:47.161Z,34.30
2018-06-11T15:14:17.501Z,34.10
2018-06-11T15:16:47.872Z,34.00
2018-06-11T15:19:17.851Z,34.00
2018-06-11T15:21:49.200Z,34.00
2018-06-11T15:24:21.316Z,34.00
2018-06-11T15:26:51.680Z,34.00
2018-06-11T15:29:24.907Z,33.90
2018-06-11T15:31:56.284Z,33.80
2018-06-11T15:34:26.400Z,33.60
2018-06-11T15:36:58.561Z,33.60
2018-06-11T15:39:29.231Z,33.40
2018-06-11T15:42:10.949Z,33.40
2018-06-11T15:44:41.511Z,33.30
2018-06-11T15:47:11.861Z,33.20
2018-06-11T15:49:41.994Z,33.00
2018-06-11T15:52:12.874Z,32.80
2018-06-11T15:54:43.450Z,32.70
2018-06-11T15:57:13.801Z,32.50
2018-06-11T15:59:44.101Z,32.40
2018-06-11T16:02:14.501Z,32.30
2018-06-11T16:04:45.940Z,32.20
2018-06-11T16:07:16.275Z,32.10
2018-06-11T16:09:45.979Z,32.10
2018-06-11T16:12:15.553Z,32.10
2018-06-11T16:14:45.434Z,32.20
2018-06-11T16:17:15.296Z,32.30
2018-06-11T16:19:45.390Z,32.40
2018-06-11T16:22:15.860Z,32.30
2018-06-11T16:24:46.060Z,32.30
2018-06-11T16:27:16.690Z,32.30
2018-06-11T16:29:47.331Z,32.20
2018-06-11T16:32:17.823Z,32.10
2018-06-11T16:34:48.521Z,31.90
2018-06-11T16:37:18.709Z,31.80
2018-06-11T16:39:48.834Z,31.60
2018-06-11T16:42:19.531Z,31.50
2018-06-11T16:44:49.620Z,31.40
2018-06-11T16:47:20.720Z,31.20
2018-06-11T16:49:50.960Z,31.10
2018-06-11T16:52:21.191Z,31.00
2018-06-11T16:54:51.890Z,30.90
2018-06-11T16:57:22.431Z,30.90
2018-06-11T16:59:52.700Z,30.80
2018-06-11T17:02:22.781Z,30.70
2018-06-11T17:04:53.111Z,30.60
2018-06-11T17:07:23.810Z,30.60
2018-06-11T17:09:54.130Z,30.40
2018-06-11T17:12:24.561Z,30.30
2018-06-11T17:14:54.770Z,30.20
2018-06-11T17:19:55.431Z,29.90
2018-06-11T17:22:25.921Z,29.70
2018-06-11T17:24:55.897Z,29.50
2018-06-11T17:27:26.450Z,29.40
2018-06-11T17:29:56.710Z,29.30
2018-06-11T17:32:26.850Z,29.10
2018-06-11T17:37:27.314Z,28.70
2018-06-11T17:39:58.231Z,28.60
2018-06-11T17:42:28.472Z,28.50
2018-06-11T17:44:59.313Z,28.50
2018-06-11T17:47:29.751Z,28.50
2018-06-11T17:50:00.375Z,28.40
2018-06-11T17:52:30.701Z,28.40
2018-06-11T17:55:01.185Z,28.40
2018-06-11T17:57:32.008Z,28.40
2018-06-11T18:00:02.771Z,28.50
2018-06-11T18:02:33.270Z,28.40
2018-06-11T18:05:03.037Z,28.40
2018-06-11T18:07:33.549Z,28.40
2018-06-11T18:10:03.735Z,28.30
2018-06-11T18:12:34.321Z,28.20
2018-06-11T18:15:04.451Z,28.20
2018-06-11T18:17:35.073Z,28.20
2018-06-11T18:20:04.902Z,28.10
2018-06-11T18:22:35.140Z,28.00
2018-06-11T18:27:35.399Z,27.90
2018-06-11T18:30:05.921Z,27.80
2018-06-11T18:32:36.311Z,27.80
2018-06-11T18:35:07.234Z,27.70
2018-06-11T18:37:37.742Z,27.60
2018-06-11T18:40:07.979Z,27.50
2018-06-11T18:42:38.400Z,27.50
2018-06-11T18:45:08.630Z,27.40
2018-06-11T18:47:39.103Z,27.40
2018-06-11T18:50:09.701Z,27.40
2018-06-11T18:52:40.250Z,27.30
2018-06-11T18:55:13.071Z,27.30
2018-06-11T18:57:43.488Z,27.20
2018-06-11T19:00:13.721Z,27.10
2018-06-11T19:02:44.351Z,27.10
2018-06-11T19:05:15.043Z,27.10
2018-06-11T19:07:45.670Z,27.00
2018-06-11T19:10:16.001Z,26.90
2018-06-11T19:12:46.911Z,26.80
2018-06-11T19:15:17.370Z,26.80
2018-06-11T19:17:47.661Z,26.80
2018-06-11T19:20:18.011Z,26.70
2018-06-11T19:22:49.321Z,26.60
2018-06-11T19:25:20.012Z,26.60
2018-06-11T19:27:51.034Z,26.50
2018-06-11T19:30:21.953Z,26.50
2018-06-11T19:32:52.521Z,26.40
2018-06-11T19:35:22.692Z,26.40
2018-06-11T19:37:53.101Z,26.30
2018-06-11T19:40:25.320Z,26.30
2018-06-11T19:42:56.171Z,26.30
2018-06-11T19:45:26.921Z,26.20
2018-06-11T19:47:57.372Z,26.20
2018-06-11T19:50:27.620Z,26.10
2018-06-11T19:52:58.032Z,26.10
2018-06-11T19:55:28.384Z,26.10
2018-06-11T19:57:58.961Z,26.00
2018-06-11T20:00:29.980Z,26.00
2018-06-11T20:03:00.341Z,25.90
2018-06-11T20:05:30.812Z,26.00
2018-06-11T20:08:01.101Z,25.90
2018-06-11T20:10:31.432Z,25.70
2018-06-11T20:13:01.940Z,25.50
2018-06-11T20:15:32.312Z,25.30
2018-06-11T20:18:02.613Z,25.10
2018-06-11T20:20:33.081Z,25.00
2018-06-11T20:23:03.380Z,24.90
2018-06-11T20:25:33.641Z,24.90
2018-06-11T20:28:03.913Z,24.90
2018-06-11T20:30:34.140Z,24.90
2018-06-11T20:33:04.372Z,24.80
2018-06-11T20:35:34.841Z,24.70
2018-06-11T20:38:05.222Z,24.60
2018-06-11T20:40:36.184Z,24.50
2018-06-11T20:43:07.254Z,24.50
2018-06-11T20:45:37.864Z,24.40
2018-06-11T20:48:08.561Z,24.40
2018-06-11T20:50:38.901Z,24.40
2018-06-11T20:53:09.012Z,24.40
2018-06-11T20:55:39.452Z,24.40
2018-06-11T20:58:09.753Z,24.40
2018-06-11T21:00:39.901Z,24.40
2018-06-11T21:03:10.252Z,24.30
2018-06-11T21:05:40.600Z,24.30
2018-06-11T21:08:10.941Z,24.20
2018-06-11T21:10:43.053Z,24.20
2018-06-11T21:13:13.452Z,24.10
2018-06-11T21:15:43.621Z,24.00
2018-06-11T21:18:13.903Z,23.90
2018-06-11T21:20:44.453Z,23.70
2018-06-11T21:23:14.810Z,23.70
2018-06-11T21:25:47.660Z,23.60
2018-06-11T21:28:18.033Z,23.50
2018-06-11T21:30:48.154Z,23.50
2018-06-11T21:33:18.730Z,23.40
2018-06-11T21:35:49.110Z,23.40
2018-06-11T21:38:19.335Z,23.30
2018-06-11T21:40:49.606Z,23.20
2018-06-11T21:43:20.535Z,23.10
2018-06-11T21:45:51.247Z,23.00
2018-06-11T21:48:22.090Z,22.90
2018-06-11T21:50:52.334Z,22.80
2018-06-11T21:53:22.632Z,22.60
2018-06-11T21:55:53.125Z,22.30
2018-06-11T21:58:32.341Z,21.70
2018-06-11T22:01:03.441Z,21.30
2018-06-11T22:03:34.126Z,21.00
2018-06-11T22:06:04.720Z,20.90
2018-06-11T22:08:35.412Z,20.80
2018-06-11T22:13:35.479Z,20.70
2018-06-11T22:16:05.837Z,20.60
2018-06-11T22:18:36.351Z,20.60
2018-06-11T22:21:06.496Z,20.60
2018-06-11T22:23:36.861Z,20.50
2018-06-11T22:26:07.061Z,20.60
2018-06-11T22:28:37.449Z,20.60
2018-06-11T22:31:07.542Z,20.60
2018-06-11T22:33:38.262Z,20.60
2018-06-11T22:36:08.352Z,20.60
2018-06-11T22:38:38.447Z,20.60
2018-06-11T22:41:08.611Z,20.60
2018-06-11T22:43:38.740Z,20.60
2018-06-11T22:46:09.021Z,20.60
2018-06-11T22:48:39.292Z,20.60
2018-06-11T22:51:09.732Z,20.50
2018-06-11T22:53:39.603Z,20.40
2018-06-11T22:56:09.941Z,20.40
2018-06-11T23:01:10.521Z,20.30
2018-06-11T23:03:40.799Z,20.20
2018-06-11T23:06:11.301Z,20.20
2018-06-11T23:08:41.461Z,20.20
2018-06-11T23:11:11.760Z,20.20
2018-06-11T23:13:41.494Z,20.20
2018-06-11T23:16:11.572Z,20.10
2018-06-11T23:18:41.796Z,20.20
2018-06-11T23:21:12.010Z,20.20
2018-06-11T23:23:42.526Z,20.20
2018-06-11T23:26:13.572Z,20.20
2018-06-11T23:28:44.206Z,20.30
2018-06-11T23:31:15.011Z,20.20
2018-06-11T23:33:45.221Z,20.20
2018-06-11T23:36:15.540Z,20.20
2018-06-11T23:38:46.280Z,20.10
2018-06-11T23:41:16.672Z,20.10
2018-06-11T23:43:46.822Z,20.10
2018-06-11T23:46:16.881Z,20.10
2018-06-11T23:48:46.891Z,20.10
2018-06-11T23:51:17.321Z,20.10
2018-06-11T23:53:47.572Z,20.00
2018-06-11T23:56:17.821Z,20.00
2018-06-11T23:58:48.120Z,20.10
